sensor_id;sensor_type;location;lat;lon;timestamp;temperature;humidity
3699;DHT22;1865;50.918;7.092;2023-04-24T00:00:04;16.40;46.00
3699;DHT22;1865;50.918;7.092;2023-04-24T00:02:31;16.40;46.20
3699;DHT22;1865;50.918;7.092;2023-04-24T00:04:58;16.40;46.30
3699;DHT22;1865;50.918;7.092;2023-04-24T00:07:28;16.40;46.40
3699;DHT22;1865;50.918;7.092;2023-04-24T00:09:54;16.40;46.50
3699;DHT22;1865;50.918;7.092;2023-04-24T00:12:19;16.40;46.20
3699;DHT22;1865;50.918;7.092;2023-04-24T00:14:45;16.40;46.60
3699;DHT22;1865;50.918;7.092;2023-04-24T00:17:11;16.30;46.80
3699;DHT22;1865;50.918;7.092;2023-04-24T00:19:36;16.30;46.80
3699;DHT22;1865;50.918;7.092;2023-04-24T00:22:02;16.30;46.80
3699;DHT22;1865;50.918;7.092;2023-04-24T00:24:28;16.40;46.70
3699;DHT22;1865;50.918;7.092;2023-04-24T00:26:53;16.40;47.00
3699;DHT22;1865;50.918;7.092;2023-04-24T00:29:19;16.40;47.00
3699;DHT22;1865;50.918;7.092;2023-04-24T00:31:44;16.30;46.90
3699;DHT22;1865;50.918;7.092;2023-04-24T00:34:10;16.30;47.30
3699;DHT22;1865;50.918;7.092;2023-04-24T00:36:37;16.30;47.30
3699;DHT22;1865;50.918;7.092;2023-04-24T00:39:02;16.40;47.80
3699;DHT22;1865;50.918;7.092;2023-04-24T00:41:28;16.40;47.30
3699;DHT22;1865;50.918;7.092;2023-04-24T00:43:53;16.40;47.00
3699;DHT22;1865;50.918;7.092;2023-04-24T00:46:19;16.30;47.70
3699;DHT22;1865;50.918;7.092;2023-04-24T00:48:46;16.30;47.90
3699;DHT22;1865;50.918;7.092;2023-04-24T00:51:12;16.40;47.90
3699;DHT22;1865;50.918;7.092;2023-04-24T00:53:38;16.40;47.60
3699;DHT22;1865;50.918;7.092;2023-04-24T00:56:04;16.40;47.80
3699;DHT22;1865;50.918;7.092;2023-04-24T00:58:30;16.50;47.70
3699;DHT22;1865;50.918;7.092;2023-04-24T01:00:57;16.50;47.60
3699;DHT22;1865;50.918;7.092;2023-04-24T01:03:26;16.50;47.80
3699;DHT22;1865;50.918;7.092;2023-04-24T01:05:54;16.40;47.90
3699;DHT22;1865;50.918;7.092;2023-04-24T01:08:22;16.50;47.80
3699;DHT22;1865;50.918;7.092;2023-04-24T01:10:50;16.50;48.00
3699;DHT22;1865;50.918;7.092;2023-04-24T01:13:16;16.50;47.90
3699;DHT22;1865;50.918;7.092;2023-04-24T01:15:43;16.60;47.80
3699;DHT22;1865;50.918;7.092;2023-04-24T01:18:08;16.50;47.70
3699;DHT22;1865;50.918;7.092;2023-04-24T01:20:34;16.50;47.60
3699;DHT22;1865;50.918;7.092;2023-04-24T01:23:00;16.50;47.40
3699;DHT22;1865;50.918;7.092;2023-04-24T01:25:27;16.50;47.40
3699;DHT22;1865;50.918;7.092;2023-04-24T01:27:53;16.50;47.40
3699;DHT22;1865;50.918;7.092;2023-04-24T01:30:18;16.30;46.40
3699;DHT22;1865;50.918;7.092;2023-04-24T01:32:44;16.20;46.40
3699;DHT22;1865;50.918;7.092;2023-04-24T01:35:11;16.10;46.00
3699;DHT22;1865;50.918;7.092;2023-04-24T01:37:36;16.00;46.50
3699;DHT22;1865;50.918;7.092;2023-04-24T01:40:06;15.90;46.80
3699;DHT22;1865;50.918;7.092;2023-04-24T01:42:32;15.90;46.90
3699;DHT22;1865;50.918;7.092;2023-04-24T01:44:58;16.00;46.60
3699;DHT22;1865;50.918;7.092;2023-04-24T01:47:24;15.90;46.20
3699;DHT22;1865;50.918;7.092;2023-04-24T01:49:50;15.90;45.50
3699;DHT22;1865;50.918;7.092;2023-04-24T01:52:15;15.70;45.70
3699;DHT22;1865;50.918;7.092;2023-04-24T01:54:42;15.80;45.00
3699;DHT22;1865;50.918;7.092;2023-04-24T01:57:08;15.80;44.60
3699;DHT22;1865;50.918;7.092;2023-04-24T01:59:34;15.80;44.80
3699;DHT22;1865;50.918;7.092;2023-04-24T02:02:02;15.80;44.80
3699;DHT22;1865;50.918;7.092;2023-04-24T02:04:27;15.90;44.70
3699;DHT22;1865;50.918;7.092;2023-04-24T02:06:53;16.00;44.40
3699;DHT22;1865;50.918;7.092;2023-04-24T02:09:19;15.80;43.70
3699;DHT22;1865;50.918;7.092;2023-04-24T02:11:44;15.80;43.70
3699;DHT22;1865;50.918;7.092;2023-04-24T02:14:10;15.90;43.50
3699;DHT22;1865;50.918;7.092;2023-04-24T02:16:35;15.80;42.70
3699;DHT22;1865;50.918;7.092;2023-04-24T02:19:01;15.70;42.10
3699;DHT22;1865;50.918;7.092;2023-04-24T02:21:27;15.70;42.70
3699;DHT22;1865;50.918;7.092;2023-04-24T02:23:53;15.80;42.20
3699;DHT22;1865;50.918;7.092;2023-04-24T02:26:19;15.80;42.90
3699;DHT22;1865;50.918;7.092;2023-04-24T02:28:44;15.70;42.50
3699;DHT22;1865;50.918;7.092;2023-04-24T02:31:10;15.50;42.70
3699;DHT22;1865;50.918;7.092;2023-04-24T02:33:35;15.50;43.40
3699;DHT22;1865;50.918;7.092;2023-04-24T02:36:02;15.50;43.20
3699;DHT22;1865;50.918;7.092;2023-04-24T02:38:28;15.30;43.00
3699;DHT22;1865;50.918;7.092;2023-04-24T02:40:54;15.20;43.00
3699;DHT22;1865;50.918;7.092;2023-04-24T02:43:19;15.20;43.40
3699;DHT22;1865;50.918;7.092;2023-04-24T02:45:45;15.10;43.60
3699;DHT22;1865;50.918;7.092;2023-04-24T02:48:11;14.90;43.30
3699;DHT22;1865;50.918;7.092;2023-04-24T02:50:36;14.70;44.20
3699;DHT22;1865;50.918;7.092;2023-04-24T02:53:02;14.70;44.30
3699;DHT22;1865;50.918;7.092;2023-04-24T02:55:27;14.80;44.50
3699;DHT22;1865;50.918;7.092;2023-04-24T02:57:53;14.80;44.00
3699;DHT22;1865;50.918;7.092;2023-04-24T03:00:19;14.80;43.90
3699;DHT22;1865;50.918;7.092;2023-04-24T03:02:44;14.80;43.90
3699;DHT22;1865;50.918;7.092;2023-04-24T03:05:10;14.70;44.50
3699;DHT22;1865;50.918;7.092;2023-04-24T03:07:37;14.70;44.40
3699;DHT22;1865;50.918;7.092;2023-04-24T03:10:03;14.60;44.20
3699;DHT22;1865;50.918;7.092;2023-04-24T03:12:30;14.70;44.40
3699;DHT22;1865;50.918;7.092;2023-04-24T03:14:55;14.70;44.20
3699;DHT22;1865;50.918;7.092;2023-04-24T03:17:21;14.70;44.10
3699;DHT22;1865;50.918;7.092;2023-04-24T03:19:47;14.60;44.10
3699;DHT22;1865;50.918;7.092;2023-04-24T03:22:12;14.70;43.90
3699;DHT22;1865;50.918;7.092;2023-04-24T03:24:38;14.80;43.60
3699;DHT22;1865;50.918;7.092;2023-04-24T03:27:03;14.80;43.20
3699;DHT22;1865;50.918;7.092;2023-04-24T03:29:29;14.80;43.40
3699;DHT22;1865;50.918;7.092;2023-04-24T03:31:54;14.80;43.20
3699;DHT22;1865;50.918;7.092;2023-04-24T03:34:20;14.70;43.70
3699;DHT22;1865;50.918;7.092;2023-04-24T03:36:45;14.70;43.40
3699;DHT22;1865;50.918;7.092;2023-04-24T03:39:13;14.70;43.50
3699;DHT22;1865;50.918;7.092;2023-04-24T03:41:38;14.70;43.40
3699;DHT22;1865;50.918;7.092;2023-04-24T03:44:04;14.70;43.00
3699;DHT22;1865;50.918;7.092;2023-04-24T03:46:29;14.80;43.20
3699;DHT22;1865;50.918;7.092;2023-04-24T03:48:55;14.70;43.60
3699;DHT22;1865;50.918;7.092;2023-04-24T03:51:20;14.70;43.30
3699;DHT22;1865;50.918;7.092;2023-04-24T03:53:47;14.70;43.30
3699;DHT22;1865;50.918;7.092;2023-04-24T03:56:12;14.50;42.90
3699;DHT22;1865;50.918;7.092;2023-04-24T03:58:38;14.50;43.20
3699;DHT22;1865;50.918;7.092;2023-04-24T04:01:03;14.50;43.50
3699;DHT22;1865;50.918;7.092;2023-04-24T04:03:29;14.50;43.10
3699;DHT22;1865;50.918;7.092;2023-04-24T04:05:55;14.50;43.30
3699;DHT22;1865;50.918;7.092;2023-04-24T04:08:20;14.50;43.30
3699;DHT22;1865;50.918;7.092;2023-04-24T04:10:46;14.50;43.00
3699;DHT22;1865;50.918;7.092;2023-04-24T04:13:11;14.40;43.40
3699;DHT22;1865;50.918;7.092;2023-04-24T04:15:37;14.50;43.40
3699;DHT22;1865;50.918;7.092;2023-04-24T04:18:02;14.50;43.20
3699;DHT22;1865;50.918;7.092;2023-04-24T04:20:28;14.50;42.90
3699;DHT22;1865;50.918;7.092;2023-04-24T04:22:53;14.40;43.60
3699;DHT22;1865;50.918;7.092;2023-04-24T04:25:19;14.40;43.90
3699;DHT22;1865;50.918;7.092;2023-04-24T04:27:45;14.40;43.80
3699;DHT22;1865;50.918;7.092;2023-04-24T04:30:13;14.40;44.00
3699;DHT22;1865;50.918;7.092;2023-04-24T04:32:39;14.40;44.00
3699;DHT22;1865;50.918;7.092;2023-04-24T04:35:05;14.40;43.90
3699;DHT22;1865;50.918;7.092;2023-04-24T04:37:31;14.40;43.70
3699;DHT22;1865;50.918;7.092;2023-04-24T04:39:57;14.50;43.70
3699;DHT22;1865;50.918;7.092;2023-04-24T04:42:24;14.50;43.80
3699;DHT22;1865;50.918;7.092;2023-04-24T04:44:49;14.50;43.90
3699;DHT22;1865;50.918;7.092;2023-04-24T04:47:16;14.50;44.20
3699;DHT22;1865;50.918;7.092;2023-04-24T04:49:42;14.50;44.70
3699;DHT22;1865;50.918;7.092;2023-04-24T04:52:09;14.40;44.70
3699;DHT22;1865;50.918;7.092;2023-04-24T04:54:34;14.40;44.90
3699;DHT22;1865;50.918;7.092;2023-04-24T04:57:00;14.40;44.30
3699;DHT22;1865;50.918;7.092;2023-04-24T04:59:26;14.40;44.40
3699;DHT22;1865;50.918;7.092;2023-04-24T05:01:52;14.40;44.40
3699;DHT22;1865;50.918;7.092;2023-04-24T05:04:17;14.40;44.40
3699;DHT22;1865;50.918;7.092;2023-04-24T05:06:44;14.40;45.10
3699;DHT22;1865;50.918;7.092;2023-04-24T05:09:10;14.40;44.70
3699;DHT22;1865;50.918;7.092;2023-04-24T05:11:35;14.40;45.10
3699;DHT22;1865;50.918;7.092;2023-04-24T05:14:01;14.40;44.60
3699;DHT22;1865;50.918;7.092;2023-04-24T05:16:26;14.40;44.70
3699;DHT22;1865;50.918;7.092;2023-04-24T05:18:52;14.40;45.10
3699;DHT22;1865;50.918;7.092;2023-04-24T05:21:17;14.50;44.80
3699;DHT22;1865;50.918;7.092;2023-04-24T05:23:43;14.50;44.80
3699;DHT22;1865;50.918;7.092;2023-04-24T05:26:08;14.40;45.00
3699;DHT22;1865;50.918;7.092;2023-04-24T05:28:34;14.40;45.00
3699;DHT22;1865;50.918;7.092;2023-04-24T05:31:02;14.40;45.40
3699;DHT22;1865;50.918;7.092;2023-04-24T05:33:27;14.50;44.90
3699;DHT22;1865;50.918;7.092;2023-04-24T05:35:53;14.40;45.40
3699;DHT22;1865;50.918;7.092;2023-04-24T05:38:19;14.40;45.30
3699;DHT22;1865;50.918;7.092;2023-04-24T05:40:45;14.40;45.50
3699;DHT22;1865;50.918;7.092;2023-04-24T05:43:11;14.40;45.40
3699;DHT22;1865;50.918;7.092;2023-04-24T05:45:37;14.40;45.30
3699;DHT22;1865;50.918;7.092;2023-04-24T05:48:03;14.40;45.60
3699;DHT22;1865;50.918;7.092;2023-04-24T05:50:29;14.40;45.00
3699;DHT22;1865;50.918;7.092;2023-04-24T05:52:54;14.40;45.10
3699;DHT22;1865;50.918;7.092;2023-04-24T05:55:20;14.40;45.20
3699;DHT22;1865;50.918;7.092;2023-04-24T05:57:45;14.40;45.10
3699;DHT22;1865;50.918;7.092;2023-04-24T06:00:12;14.50;45.10
3699;DHT22;1865;50.918;7.092;2023-04-24T06:02:38;14.40;45.10
3699;DHT22;1865;50.918;7.092;2023-04-24T06:05:04;14.30;45.10
3699;DHT22;1865;50.918;7.092;2023-04-24T06:07:30;14.40;44.90
3699;DHT22;1865;50.918;7.092;2023-04-24T06:09:56;14.40;44.90
3699;DHT22;1865;50.918;7.092;2023-04-24T06:12:22;14.40;45.10
3699;DHT22;1865;50.918;7.092;2023-04-24T06:14:47;14.30;45.40
3699;DHT22;1865;50.918;7.092;2023-04-24T06:17:13;14.30;45.80
3699;DHT22;1865;50.918;7.092;2023-04-24T06:19:39;14.30;46.30
3699;DHT22;1865;50.918;7.092;2023-04-24T06:22:04;14.30;46.30
3699;DHT22;1865;50.918;7.092;2023-04-24T06:24:30;14.30;46.40
3699;DHT22;1865;50.918;7.092;2023-04-24T06:26:55;14.30;46.90
3699;DHT22;1865;50.918;7.092;2023-04-24T06:29:22;14.30;47.10
3699;DHT22;1865;50.918;7.092;2023-04-24T06:31:48;14.30;47.50
3699;DHT22;1865;50.918;7.092;2023-04-24T06:34:14;14.20;47.20
3699;DHT22;1865;50.918;7.092;2023-04-24T06:36:39;14.20;47.70
3699;DHT22;1865;50.918;7.092;2023-04-24T06:39:05;14.30;48.40
3699;DHT22;1865;50.918;7.092;2023-04-24T06:41:30;14.30;49.00
3699;DHT22;1865;50.918;7.092;2023-04-24T06:43:56;14.10;49.40
3699;DHT22;1865;50.918;7.092;2023-04-24T06:46:22;14.00;50.00
3699;DHT22;1865;50.918;7.092;2023-04-24T06:48:49;13.90;51.30
3699;DHT22;1865;50.918;7.092;2023-04-24T06:51:15;13.80;51.60
3699;DHT22;1865;50.918;7.092;2023-04-24T06:53:41;13.80;51.90
3699;DHT22;1865;50.918;7.092;2023-04-24T06:56:06;13.80;52.20
3699;DHT22;1865;50.918;7.092;2023-04-24T06:58:32;13.70;53.00
3699;DHT22;1865;50.918;7.092;2023-04-24T07:00:57;13.60;53.70
3699;DHT22;1865;50.918;7.092;2023-04-24T07:03:23;13.70;53.90
3699;DHT22;1865;50.918;7.092;2023-04-24T07:05:48;13.60;53.60
3699;DHT22;1865;50.918;7.092;2023-04-24T07:08:14;13.60;54.20
3699;DHT22;1865;50.918;7.092;2023-04-24T07:10:42;13.60;54.50
3699;DHT22;1865;50.918;7.092;2023-04-24T07:13:08;13.60;54.70
3699;DHT22;1865;50.918;7.092;2023-04-24T07:15:33;13.60;54.60
3699;DHT22;1865;50.918;7.092;2023-04-24T07:18:00;13.50;54.90
3699;DHT22;1865;50.918;7.092;2023-04-24T07:20:25;13.40;55.20
3699;DHT22;1865;50.918;7.092;2023-04-24T07:22:51;13.30;55.10
3699;DHT22;1865;50.918;7.092;2023-04-24T07:25:19;13.30;55.70
3699;DHT22;1865;50.918;7.092;2023-04-24T07:27:45;13.40;55.40
3699;DHT22;1865;50.918;7.092;2023-04-24T07:30:11;13.30;55.30
3699;DHT22;1865;50.918;7.092;2023-04-24T07:32:36;13.30;56.40
3699;DHT22;1865;50.918;7.092;2023-04-24T07:35:02;13.30;56.50
3699;DHT22;1865;50.918;7.092;2023-04-24T07:37:28;13.20;56.10
3699;DHT22;1865;50.918;7.092;2023-04-24T07:39:54;13.20;56.50
3699;DHT22;1865;50.918;7.092;2023-04-24T07:42:19;13.30;56.90
3699;DHT22;1865;50.918;7.092;2023-04-24T07:44:45;13.30;56.70
3699;DHT22;1865;50.918;7.092;2023-04-24T07:47:13;13.20;56.80
3699;DHT22;1865;50.918;7.092;2023-04-24T07:49:43;13.20;56.90
3699;DHT22;1865;50.918;7.092;2023-04-24T07:52:09;13.20;58.10
3699;DHT22;1865;50.918;7.092;2023-04-24T07:54:34;12.90;57.30
3699;DHT22;1865;50.918;7.092;2023-04-24T07:57:00;12.90;57.70
3699;DHT22;1865;50.918;7.092;2023-04-24T07:59:26;12.50;57.80
3699;DHT22;1865;50.918;7.092;2023-04-24T08:01:51;12.10;58.70
3699;DHT22;1865;50.918;7.092;2023-04-24T08:04:17;11.90;58.50
3699;DHT22;1865;50.918;7.092;2023-04-24T08:06:43;12.00;59.20
3699;DHT22;1865;50.918;7.092;2023-04-24T08:09:09;11.90;58.80
3699;DHT22;1865;50.918;7.092;2023-04-24T08:11:35;12.00;59.40
3699;DHT22;1865;50.918;7.092;2023-04-24T08:14:00;11.90;59.00
3699;DHT22;1865;50.918;7.092;2023-04-24T08:16:26;11.80;59.70
3699;DHT22;1865;50.918;7.092;2023-04-24T08:18:53;11.70;59.10
3699;DHT22;1865;50.918;7.092;2023-04-24T08:21:19;11.70;58.90
3699;DHT22;1865;50.918;7.092;2023-04-24T08:23:46;11.80;60.90
3699;DHT22;1865;50.918;7.092;2023-04-24T08:26:12;11.80;59.30
3699;DHT22;1865;50.918;7.092;2023-04-24T08:28:38;11.90;60.30
3699;DHT22;1865;50.918;7.092;2023-04-24T08:31:04;11.80;58.60
3699;DHT22;1865;50.918;7.092;2023-04-24T08:33:30;11.70;58.20
3699;DHT22;1865;50.918;7.092;2023-04-24T08:36:01;11.80;59.80
3699;DHT22;1865;50.918;7.092;2023-04-24T08:38:27;11.80;58.60
3699;DHT22;1865;50.918;7.092;2023-04-24T08:40:52;11.80;59.50
3699;DHT22;1865;50.918;7.092;2023-04-24T08:43:18;11.60;58.20
3699;DHT22;1865;50.918;7.092;2023-04-24T08:45:46;11.30;59.00
3699;DHT22;1865;50.918;7.092;2023-04-24T08:48:11;11.30;59.50
3699;DHT22;1865;50.918;7.092;2023-04-24T08:50:38;11.20;59.60
3699;DHT22;1865;50.918;7.092;2023-04-24T08:53:07;11.20;59.90
3699;DHT22;1865;50.918;7.092;2023-04-24T08:55:33;11.20;59.10
3699;DHT22;1865;50.918;7.092;2023-04-24T08:57:59;11.20;59.90
3699;DHT22;1865;50.918;7.092;2023-04-24T09:00:26;11.20;58.90
3699;DHT22;1865;50.918;7.092;2023-04-24T09:02:53;11.20;59.80
3699;DHT22;1865;50.918;7.092;2023-04-24T09:05:21;11.30;60.10
3699;DHT22;1865;50.918;7.092;2023-04-24T09:07:53;11.30;60.20
3699;DHT22;1865;50.918;7.092;2023-04-24T09:10:19;11.00;59.50
3699;DHT22;1865;50.918;7.092;2023-04-24T09:12:46;11.00;60.70
3699;DHT22;1865;50.918;7.092;2023-04-24T09:15:11;11.20;60.80
3699;DHT22;1865;50.918;7.092;2023-04-24T09:17:38;11.10;60.10
3699;DHT22;1865;50.918;7.092;2023-04-24T09:20:04;11.20;62.10
3699;DHT22;1865;50.918;7.092;2023-04-24T09:22:30;11.20;61.40
3699;DHT22;1865;50.918;7.092;2023-04-24T09:25:04;11.20;60.60
3699;DHT22;1865;50.918;7.092;2023-04-24T09:27:31;11.30;61.80
3699;DHT22;1865;50.918;7.092;2023-04-24T09:29:57;11.20;61.50
3699;DHT22;1865;50.918;7.092;2023-04-24T09:32:24;11.30;61.80
3699;DHT22;1865;50.918;7.092;2023-04-24T09:35:21;11.30;60.10
3699;DHT22;1865;50.918;7.092;2023-04-24T09:37:47;11.40;61.70
3699;DHT22;1865;50.918;7.092;2023-04-24T09:40:18;11.40;60.40
3699;DHT22;1865;50.918;7.092;2023-04-24T09:45:11;11.60;62.10
3699;DHT22;1865;50.918;7.092;2023-04-24T09:47:40;11.70;61.50
3699;DHT22;1865;50.918;7.092;2023-04-24T09:50:11;11.70;61.00
3699;DHT22;1865;50.918;7.092;2023-04-24T09:52:40;11.70;61.40
3699;DHT22;1865;50.918;7.092;2023-04-24T09:55:19;11.80;61.80
3699;DHT22;1865;50.918;7.092;2023-04-24T09:57:49;12.00;61.50
3699;DHT22;1865;50.918;7.092;2023-04-24T10:00:33;12.20;61.50
3699;DHT22;1865;50.918;7.092;2023-04-24T10:03:01;12.20;61.40
3699;DHT22;1865;50.918;7.092;2023-04-24T10:05:35;12.10;59.90
3699;DHT22;1865;50.918;7.092;2023-04-24T10:08:11;12.20;61.40
3699;DHT22;1865;50.918;7.092;2023-04-24T10:13:07;12.40;62.20
3699;DHT22;1865;50.918;7.092;2023-04-24T10:15:34;12.50;61.60
3699;DHT22;1865;50.918;7.092;2023-04-24T10:18:00;12.50;60.60
3699;DHT22;1865;50.918;7.092;2023-04-24T10:20:28;12.50;61.80
3699;DHT22;1865;50.918;7.092;2023-04-24T10:22:57;12.60;60.60
3699;DHT22;1865;50.918;7.092;2023-04-24T10:25:25;12.70;61.20
3699;DHT22;1865;50.918;7.092;2023-04-24T10:27:52;12.90;61.50
3699;DHT22;1865;50.918;7.092;2023-04-24T10:30:19;13.00;60.80
3699;DHT22;1865;50.918;7.092;2023-04-24T10:32:45;13.30;60.40
3699;DHT22;1865;50.918;7.092;2023-04-24T10:35:13;13.20;59.20
3699;DHT22;1865;50.918;7.092;2023-04-24T10:37:48;13.10;59.60
3699;DHT22;1865;50.918;7.092;2023-04-24T10:40:18;13.20;59.90
3699;DHT22;1865;50.918;7.092;2023-04-24T10:42:47;13.30;59.80
3699;DHT22;1865;50.918;7.092;2023-04-24T10:45:17;13.40;58.90
3699;DHT22;1865;50.918;7.092;2023-04-24T10:47:51;13.20;58.00
3699;DHT22;1865;50.918;7.092;2023-04-24T10:50:16;13.20;58.30
3699;DHT22;1865;50.918;7.092;2023-04-24T10:52:49;13.10;59.40
3699;DHT22;1865;50.918;7.092;2023-04-24T10:55:16;13.40;59.90
3699;DHT22;1865;50.918;7.092;2023-04-24T10:58:03;13.30;58.10
3699;DHT22;1865;50.918;7.092;2023-04-24T11:00:29;13.30;59.10
3699;DHT22;1865;50.918;7.092;2023-04-24T11:02:54;13.40;58.60
3699;DHT22;1865;50.918;7.092;2023-04-24T11:05:21;13.40;58.80
3699;DHT22;1865;50.918;7.092;2023-04-24T11:08:15;13.60;58.90
3699;DHT22;1865;50.918;7.092;2023-04-24T11:13:24;13.60;57.60
3699;DHT22;1865;50.918;7.092;2023-04-24T11:19:05;14.00;58.30
3699;DHT22;1865;50.918;7.092;2023-04-24T11:21:39;14.10;57.70
3699;DHT22;1865;50.918;7.092;2023-04-24T11:27:15;14.10;57.30
3699;DHT22;1865;50.918;7.092;2023-04-24T11:32:39;14.10;57.70
3699;DHT22;1865;50.918;7.092;2023-04-24T11:37:40;14.30;57.60
3699;DHT22;1865;50.918;7.092;2023-04-24T11:40:08;14.20;56.40
3699;DHT22;1865;50.918;7.092;2023-04-24T11:42:35;14.10;56.90
3699;DHT22;1865;50.918;7.092;2023-04-24T11:45:00;14.00;57.20
3699;DHT22;1865;50.918;7.092;2023-04-24T11:47:28;14.00;57.50
3699;DHT22;1865;50.918;7.092;2023-04-24T11:49:54;14.00;57.70
3699;DHT22;1865;50.918;7.092;2023-04-24T11:52:20;14.00;57.10
3699;DHT22;1865;50.918;7.092;2023-04-24T11:54:51;13.90;56.00
3699;DHT22;1865;50.918;7.092;2023-04-24T11:57:19;13.80;57.50
3699;DHT22;1865;50.918;7.092;2023-04-24T11:59:45;13.70;56.90
3699;DHT22;1865;50.918;7.092;2023-04-24T12:02:24;13.80;58.20
3699;DHT22;1865;50.918;7.092;2023-04-24T12:04:52;13.90;56.90
3699;DHT22;1865;50.918;7.092;2023-04-24T12:07:17;14.20;57.60
3699;DHT22;1865;50.918;7.092;2023-04-24T12:09:55;14.50;56.30
3699;DHT22;1865;50.918;7.092;2023-04-24T12:12:24;14.80;55.60
3699;DHT22;1865;50.918;7.092;2023-04-24T12:14:58;14.80;55.10
3699;DHT22;1865;50.918;7.092;2023-04-24T12:17:32;15.00;54.50
3699;DHT22;1865;50.918;7.092;2023-04-24T12:19:59;15.10;54.10
3699;DHT22;1865;50.918;7.092;2023-04-24T12:22:26;15.10;53.10
3699;DHT22;1865;50.918;7.092;2023-04-24T12:24:56;15.20;54.20
3699;DHT22;1865;50.918;7.092;2023-04-24T12:27:22;15.40;54.40
3699;DHT22;1865;50.918;7.092;2023-04-24T12:29:52;15.50;52.80
3699;DHT22;1865;50.918;7.092;2023-04-24T12:32:18;15.40;53.50
3699;DHT22;1865;50.918;7.092;2023-04-24T12:34:44;15.20;53.00
3699;DHT22;1865;50.918;7.092;2023-04-24T12:37:11;15.00;52.50
3699;DHT22;1865;50.918;7.092;2023-04-24T12:39:36;15.00;53.80
3699;DHT22;1865;50.918;7.092;2023-04-24T12:42:02;15.10;53.80
3699;DHT22;1865;50.918;7.092;2023-04-24T12:44:33;15.10;53.20
3699;DHT22;1865;50.918;7.092;2023-04-24T12:47:00;14.90;53.90
3699;DHT22;1865;50.918;7.092;2023-04-24T12:49:26;14.80;52.90
3699;DHT22;1865;50.918;7.092;2023-04-24T12:51:51;14.80;54.00
3699;DHT22;1865;50.918;7.092;2023-04-24T12:54:17;14.90;55.00
3699;DHT22;1865;50.918;7.092;2023-04-24T12:56:42;15.10;55.20
3699;DHT22;1865;50.918;7.092;2023-04-24T12:59:08;15.30;55.10
3699;DHT22;1865;50.918;7.092;2023-04-24T13:01:33;15.60;54.20
3699;DHT22;1865;50.918;7.092;2023-04-24T13:03:59;15.60;53.40
3699;DHT22;1865;50.918;7.092;2023-04-24T13:06:25;15.50;51.70
3699;DHT22;1865;50.918;7.092;2023-04-24T13:08:51;15.10;51.10
3699;DHT22;1865;50.918;7.092;2023-04-24T13:11:17;14.80;51.00
3699;DHT22;1865;50.918;7.092;2023-04-24T13:13:43;14.80;52.90
3699;DHT22;1865;50.918;7.092;2023-04-24T13:16:08;15.10;52.60
3699;DHT22;1865;50.918;7.092;2023-04-24T13:18:34;15.50;51.50
3699;DHT22;1865;50.918;7.092;2023-04-24T13:21:00;16.00;50.90
3699;DHT22;1865;50.918;7.092;2023-04-24T13:23:26;16.50;48.60
3699;DHT22;1865;50.918;7.092;2023-04-24T13:25:51;16.70;46.70
3699;DHT22;1865;50.918;7.092;2023-04-24T13:28:17;16.50;48.40
3699;DHT22;1865;50.918;7.092;2023-04-24T13:30:43;16.10;44.50
3699;DHT22;1865;50.918;7.092;2023-04-24T13:33:08;15.90;47.50
3699;DHT22;1865;50.918;7.092;2023-04-24T13:35:34;15.60;48.00
3699;DHT22;1865;50.918;7.092;2023-04-24T13:37:59;15.50;47.70
3699;DHT22;1865;50.918;7.092;2023-04-24T13:40:27;15.30;46.50
3699;DHT22;1865;50.918;7.092;2023-04-24T13:42:52;15.20;47.20
3699;DHT22;1865;50.918;7.092;2023-04-24T13:45:18;15.20;45.60
3699;DHT22;1865;50.918;7.092;2023-04-24T13:47:43;15.40;47.50
3699;DHT22;1865;50.918;7.092;2023-04-24T13:50:09;16.30;48.00
3699;DHT22;1865;50.918;7.092;2023-04-24T13:52:35;16.90;41.30
3699;DHT22;1865;50.918;7.092;2023-04-24T13:55:01;17.10;42.70
3699;DHT22;1865;50.918;7.092;2023-04-24T13:57:26;17.10;42.40
3699;DHT22;1865;50.918;7.092;2023-04-24T13:59:53;17.00;39.60
3699;DHT22;1865;50.918;7.092;2023-04-24T14:02:20;16.90;42.10
3699;DHT22;1865;50.918;7.092;2023-04-24T14:04:46;16.70;41.80
3699;DHT22;1865;50.918;7.092;2023-04-24T14:07:13;16.50;42.90
3699;DHT22;1865;50.918;7.092;2023-04-24T14:09:38;16.20;41.80
3699;DHT22;1865;50.918;7.092;2023-04-24T14:12:04;16.10;42.70
3699;DHT22;1865;50.918;7.092;2023-04-24T14:14:31;16.00;41.80
3699;DHT22;1865;50.918;7.092;2023-04-24T14:16:56;15.90;42.90
3699;DHT22;1865;50.918;7.092;2023-04-24T14:19:22;15.80;43.30
3699;DHT22;1865;50.918;7.092;2023-04-24T14:21:48;16.00;42.10
3699;DHT22;1865;50.918;7.092;2023-04-24T14:24:13;16.20;42.80
3699;DHT22;1865;50.918;7.092;2023-04-24T14:26:39;16.30;43.60
3699;DHT22;1865;50.918;7.092;2023-04-24T14:29:04;16.40;43.10
3699;DHT22;1865;50.918;7.092;2023-04-24T14:31:30;16.40;42.90
3699;DHT22;1865;50.918;7.092;2023-04-24T14:33:56;16.50;42.90
3699;DHT22;1865;50.918;7.092;2023-04-24T14:36:21;16.60;41.80
3699;DHT22;1865;50.918;7.092;2023-04-24T14:38:47;16.70;41.20
3699;DHT22;1865;50.918;7.092;2023-04-24T14:41:12;17.00;40.60
3699;DHT22;1865;50.918;7.092;2023-04-24T14:43:38;17.10;38.80
3699;DHT22;1865;50.918;7.092;2023-04-24T14:46:04;17.10;39.10
3699;DHT22;1865;50.918;7.092;2023-04-24T14:48:30;17.20;38.10
3699;DHT22;1865;50.918;7.092;2023-04-24T14:50:56;17.30;38.40
3699;DHT22;1865;50.918;7.092;2023-04-24T14:53:21;17.50;38.60
3699;DHT22;1865;50.918;7.092;2023-04-24T14:55:47;17.40;36.30
3699;DHT22;1865;50.918;7.092;2023-04-24T14:58:12;17.40;36.70
3699;DHT22;1865;50.918;7.092;2023-04-24T15:00:38;17.50;37.40
3699;DHT22;1865;50.918;7.092;2023-04-24T15:03:03;17.60;37.30
3699;DHT22;1865;50.918;7.092;2023-04-24T15:05:29;17.40;35.10
3699;DHT22;1865;50.918;7.092;2023-04-24T15:07:55;17.20;35.30
3699;DHT22;1865;50.918;7.092;2023-04-24T15:10:21;17.00;36.80
3699;DHT22;1865;50.918;7.092;2023-04-24T15:12:48;16.90;36.30
3699;DHT22;1865;50.918;7.092;2023-04-24T15:15:13;17.10;37.00
3699;DHT22;1865;50.918;7.092;2023-04-24T15:17:39;17.20;37.10
3699;DHT22;1865;50.918;7.092;2023-04-24T15:20:05;17.40;37.00
3699;DHT22;1865;50.918;7.092;2023-04-24T15:22:32;17.50;36.00
3699;DHT22;1865;50.918;7.092;2023-04-24T15:24:57;17.60;35.20
3699;DHT22;1865;50.918;7.092;2023-04-24T15:27:23;17.60;35.10
3699;DHT22;1865;50.918;7.092;2023-04-24T15:29:49;17.40;36.00
3699;DHT22;1865;50.918;7.092;2023-04-24T15:32:14;17.50;36.90
3699;DHT22;1865;50.918;7.092;2023-04-24T15:34:40;17.30;36.40
3699;DHT22;1865;50.918;7.092;2023-04-24T15:37:05;17.30;37.50
3699;DHT22;1865;50.918;7.092;2023-04-24T15:39:31;17.20;37.70
3699;DHT22;1865;50.918;7.092;2023-04-24T15:41:56;17.20;37.40
3699;DHT22;1865;50.918;7.092;2023-04-24T15:44:22;16.80;36.70
3699;DHT22;1865;50.918;7.092;2023-04-24T15:46:48;16.70;38.00
3699;DHT22;1865;50.918;7.092;2023-04-24T15:49:14;16.70;38.70
3699;DHT22;1865;50.918;7.092;2023-04-24T15:51:40;16.60;38.10
3699;DHT22;1865;50.918;7.092;2023-04-24T15:54:05;16.80;37.90
3699;DHT22;1865;50.918;7.092;2023-04-24T15:56:31;16.90;37.60
3699;DHT22;1865;50.918;7.092;2023-04-24T15:58:57;16.90;37.10
3699;DHT22;1865;50.918;7.092;2023-04-24T16:01:22;16.90;38.10
3699;DHT22;1865;50.918;7.092;2023-04-24T16:03:48;16.80;38.00
3699;DHT22;1865;50.918;7.092;2023-04-24T16:06:13;16.80;38.70
3699;DHT22;1865;50.918;7.092;2023-04-24T16:08:39;16.90;38.50
3699;DHT22;1865;50.918;7.092;2023-04-24T16:11:04;16.90;38.10
3699;DHT22;1865;50.918;7.092;2023-04-24T16:13:30;16.80;37.50
3699;DHT22;1865;50.918;7.092;2023-04-24T16:15:56;16.80;37.50